Aeroporto :
LOGIN :

Iscrizione | Disclaimer

   EN    FR    IT 

 










Sommario :    VFR   VFR Marginale   IFR   IFR Intensivo   IFR Molto Intensivo
Visibilità : 
Base nubi : 
>= 8 km
>= 3000ft
5 / 8 km
1000 / 3000 ft
1500m / 5 km
500 / 1000 ft
800 / 1500m
200 / 500 ft
< 800m
< 200 ft
Simboli :   Temporali  Nebbia  Neve Forte  Precipitazioni Forti  Vento > 20 kt
SIGMETs :   Varie  Temporali  Ghiacco  Turbolenza  Onda orograficha  Ceneri Vulcaniche







- Altitudine del aeroporto : 39 ft
- Codice IATA : TRS


LIPQ - Friuli Venezia Giulia Apt. Trieste

ULTIMO METAR :
  • 260920Z 07013KT CAVOK 13/M04 Q1021

METARs OBSOLETI :
  • 260850Z 07012KT 040V110 CAVOK 12/M04 Q1021
  • 260820Z 06011KT 030V090 CAVOK 12/M03 Q1021
  • 260750Z 06012KT CAVOK 11/M03 Q1020
  • 260720Z 05011KT 020V090 CAVOK 11/M03 Q1021
  • 260650Z 06009KT 030V100 CAVOK 10/M03 Q1020

TAF TAF LIPQ
Valido dal 26 a 06 ore il 27 a 06 ore UTC


260500Z 2606/2706 08012KT 9999 SCT025
BECMG 2615/2618 VRB05KT
Nessun NOTAM noto per questo aeroporto.
3 SIGMETs conosciuti per la FIR Milano (LIMM) :
 
Turbolenza severa
LIMM SIGMET 7 VALID 260900/261100 LIIP
LIMM MILANO FIR SEV TURB OBS WI N4632 E00927 - N4517 E00948 - N4517 E00815 - N4629 E00822 - N4632 E00927 FL380 STNR WKN=
Turbolenza severa
LIMM SIGMET 6 VALID 260900/261300 LIIP
LIMM MILANO FIR SEV TURB FCST WI N4425 E00912 - N4445 E01018 - N4340 E01214 - N4339 E01021 - N4425 E00912 BLW FL070 STNR WKN=
Turbolenza severa
LIMM SIGMET 5 VALID 260900/261300 LIIP
LIMM MILANO FIR SEV TURB FCST ENTIRE FIR FL150/370 STNR NC=



MetMap, La meteo Aeronautica in un colpo d'occhio ! - Copyright ORBIFLY Dicembre 2007 - Disclaimer

ORBIFLY MET'MAP TEAM :

Programmazione e sviluppo : Alexandra Zaïnal
Concezione e sviluppo : Baudouin d'Aumeries
Co-Programmazione e sviluppo : Marc-Olivier Méhu
Supporto tecnico e logistico : Manuel Goepfert
Aiuto per la traduzione : Arnaldo La Scala

Contatto : metmap@orbifly.com




FONTI E CREDITI :

   NOAA